sensor_id;sensor_type;location;lat;lon;timestamp;pressure;altitude;pressure_sealevel;temperature;humidity
74973;BME280;63529;56.320;43.990;2023-05-07T00:00:05;100343.78;;;0.58;59.84
74973;BME280;63529;56.320;43.990;2023-05-07T00:02:35;100344.16;;;0.55;60.31
74973;BME280;63529;56.320;43.990;2023-05-07T00:05:03;100345.50;;;0.51;60.19
74973;BME280;63529;56.320;43.990;2023-05-07T00:07:31;100348.50;;;0.48;60.72
74973;BME280;63529;56.320;43.990;2023-05-07T00:09:57;100343.44;;;0.46;60.72
74973;BME280;63529;56.320;43.990;2023-05-07T00:12:22;100357.56;;;0.45;61.39
74973;BME280;63529;56.320;43.990;2023-05-07T00:14:48;100354.13;;;0.45;61.45
74973;BME280;63529;56.320;43.990;2023-05-07T00:17:14;100350.88;;;0.43;61.31
74973;BME280;63529;56.320;43.990;2023-05-07T00:19:40;100353.50;;;0.43;61.64
74973;BME280;63529;56.320;43.990;2023-05-07T00:22:08;100363.19;;;0.42;61.64
74973;BME280;63529;56.320;43.990;2023-05-07T00:24:34;100360.09;;;0.39;61.60
74973;BME280;63529;56.320;43.990;2023-05-07T00:27:00;100363.91;;;0.36;61.73
74973;BME280;63529;56.320;43.990;2023-05-07T00:29:26;100367.72;;;0.34;62.10
74973;BME280;63529;56.320;43.990;2023-05-07T00:31:52;100360.84;;;0.33;62.21
74973;BME280;63529;56.320;43.990;2023-05-07T00:34:20;100367.88;;;0.32;62.40
74973;BME280;63529;56.320;43.990;2023-05-07T00:36:46;100360.19;;;0.31;62.23
74973;BME280;63529;56.320;43.990;2023-05-07T00:39:12;100359.56;;;0.29;62.52
74973;BME280;63529;56.320;43.990;2023-05-07T00:41:38;100367.63;;;0.27;62.67
74973;BME280;63529;56.320;43.990;2023-05-07T00:44:04;100361.56;;;0.26;62.98
74973;BME280;63529;56.320;43.990;2023-05-07T00:46:30;100369.78;;;0.23;62.63
74973;BME280;63529;56.320;43.990;2023-05-07T00:48:57;100371.00;;;0.21;62.87
74973;BME280;63529;56.320;43.990;2023-05-07T00:51:25;100366.91;;;0.18;63.13
74973;BME280;63529;56.320;43.990;2023-05-07T00:53:53;100371.53;;;0.16;63.33
74973;BME280;63529;56.320;43.990;2023-05-07T00:56:21;100376.78;;;0.16;63.40
74973;BME280;63529;56.320;43.990;2023-05-07T00:58:47;100362.22;;;0.14;63.41
74973;BME280;63529;56.320;43.990;2023-05-07T01:01:13;100372.72;;;0.14;63.81
74973;BME280;63529;56.320;43.990;2023-05-07T01:03:41;100382.00;;;0.16;63.77
74973;BME280;63529;56.320;43.990;2023-05-07T01:06:07;100370.72;;;0.16;63.97
74973;BME280;63529;56.320;43.990;2023-05-07T01:08:34;100380.00;;;0.18;64.06
74973;BME280;63529;56.320;43.990;2023-05-07T01:11:01;100385.91;;;0.20;64.41
74973;BME280;63529;56.320;43.990;2023-05-07T01:13:27;100384.09;;;0.21;63.82
74973;BME280;63529;56.320;43.990;2023-05-07T01:15:53;100382.94;;;0.23;64.02
74973;BME280;63529;56.320;43.990;2023-05-07T01:18:19;100377.47;;;0.25;64.17
74973;BME280;63529;56.320;43.990;2023-05-07T01:20:45;100373.31;;;0.31;64.32
74973;BME280;63529;56.320;43.990;2023-05-07T01:23:12;100385.28;;;0.33;64.31
74973;BME280;63529;56.320;43.990;2023-05-07T01:25:38;100396.84;;;0.39;64.31
74973;BME280;63529;56.320;43.990;2023-05-07T01:28:04;100391.69;;;0.45;64.36
74973;BME280;63529;56.320;43.990;2023-05-07T01:30:34;100391.69;;;0.60;64.38
74973;BME280;63529;56.320;43.990;2023-05-07T01:33:09;100389.97;;;0.67;63.61
74973;BME280;63529;56.320;43.990;2023-05-07T01:35:42;100392.22;;;0.70;63.28
74973;BME280;63529;56.320;43.990;2023-05-07T01:38:09;100398.56;;;0.76;63.40
74973;BME280;63529;56.320;43.990;2023-05-07T01:40:36;100386.69;;;0.80;63.32
74973;BME280;63529;56.320;43.990;2023-05-07T01:43:02;100390.56;;;0.84;63.25
74973;BME280;63529;56.320;43.990;2023-05-07T01:45:30;100396.06;;;0.89;63.24
74973;BME280;63529;56.320;43.990;2023-05-07T01:47:58;100397.34;;;0.93;62.95
74973;BME280;63529;56.320;43.990;2023-05-07T01:50:25;100392.16;;;1.00;62.91
74973;BME280;63529;56.320;43.990;2023-05-07T01:52:51;100390.22;;;1.08;62.88
74973;BME280;63529;56.320;43.990;2023-05-07T01:55:18;100397.00;;;1.18;62.90
74973;BME280;63529;56.320;43.990;2023-05-07T01:57:45;100393.06;;;1.28;62.31
74973;BME280;63529;56.320;43.990;2023-05-07T02:00:11;100396.00;;;1.40;62.17
74973;BME280;63529;56.320;43.990;2023-05-07T02:02:44;100405.09;;;1.59;62.12
74973;BME280;63529;56.320;43.990;2023-05-07T02:05:23;100395.94;;;2.04;61.78
74973;BME280;63529;56.320;43.990;2023-05-07T02:07:56;100398.00;;;2.98;59.90
74973;BME280;63529;56.320;43.990;2023-05-07T02:10:22;100390.84;;;3.60;57.35
74973;BME280;63529;56.320;43.990;2023-05-07T02:12:48;100398.91;;;3.45;56.35
74973;BME280;63529;56.320;43.990;2023-05-07T02:15:14;100408.22;;;3.14;56.89
74973;BME280;63529;56.320;43.990;2023-05-07T02:18:04;100403.44;;;2.83;57.59
74973;BME280;63529;56.320;43.990;2023-05-07T02:20:32;100408.63;;;2.63;58.27
74973;BME280;63529;56.320;43.990;2023-05-07T02:22:58;100408.75;;;2.49;58.83
74973;BME280;63529;56.320;43.990;2023-05-07T02:25:26;100403.63;;;2.40;59.09
74973;BME280;63529;56.320;43.990;2023-05-07T02:27:52;100404.41;;;2.34;59.17
74973;BME280;63529;56.320;43.990;2023-05-07T02:30:22;100399.53;;;2.31;59.23
74973;BME280;63529;56.320;43.990;2023-05-07T02:32:50;100412.50;;;2.33;59.38
74973;BME280;63529;56.320;43.990;2023-05-07T02:35:17;100409.66;;;2.34;59.39
74973;BME280;63529;56.320;43.990;2023-05-07T02:37:43;100410.34;;;2.43;59.73
74973;BME280;63529;56.320;43.990;2023-05-07T02:40:09;100417.56;;;2.69;59.51
74973;BME280;63529;56.320;43.990;2023-05-07T02:42:36;100422.72;;;2.90;58.88
74973;BME280;63529;56.320;43.990;2023-05-07T02:45:02;100431.94;;;3.08;58.38
74973;BME280;63529;56.320;43.990;2023-05-07T02:47:29;100431.59;;;3.37;58.09
74973;BME280;63529;56.320;43.990;2023-05-07T02:49:56;100426.78;;;3.67;57.56
74973;BME280;63529;56.320;43.990;2023-05-07T02:52:22;100432.66;;;3.96;56.64
74973;BME280;63529;56.320;43.990;2023-05-07T02:54:48;100429.78;;;4.17;55.87
74973;BME280;63529;56.320;43.990;2023-05-07T02:57:14;100425.88;;;4.53;55.37
74973;BME280;63529;56.320;43.990;2023-05-07T02:59:41;100429.03;;;5.58;54.21
74973;BME280;63529;56.320;43.990;2023-05-07T03:02:06;100444.38;;;8.41;51.20
74973;BME280;63529;56.320;43.990;2023-05-07T03:04:32;100439.84;;;10.46;44.78
74973;BME280;63529;56.320;43.990;2023-05-07T03:06:58;100437.13;;;11.29;41.79
74973;BME280;63529;56.320;43.990;2023-05-07T03:09:24;100430.50;;;11.36;41.12
74973;BME280;63529;56.320;43.990;2023-05-07T03:11:51;100442.25;;;13.52;39.23
74973;BME280;63529;56.320;43.990;2023-05-07T03:14:17;100437.88;;;16.01;34.80
74973;BME280;63529;56.320;43.990;2023-05-07T03:16:43;100441.22;;;16.46;31.03
74973;BME280;63529;56.320;43.990;2023-05-07T03:19:09;100447.34;;;16.99;31.33
74973;BME280;63529;56.320;43.990;2023-05-07T03:21:35;100449.41;;;17.64;30.37
74973;BME280;63529;56.320;43.990;2023-05-07T03:24:01;100450.81;;;18.87;29.00
74973;BME280;63529;56.320;43.990;2023-05-07T03:26:27;100447.00;;;18.74;28.25
74973;BME280;63529;56.320;43.990;2023-05-07T03:28:53;100456.31;;;18.08;29.38
74973;BME280;63529;56.320;43.990;2023-05-07T03:31:19;100457.97;;;19.19;28.36
74973;BME280;63529;56.320;43.990;2023-05-07T03:33:56;100454.53;;;20.70;26.01
74973;BME280;63529;56.320;43.990;2023-05-07T03:36:23;100452.13;;;21.78;24.88
74973;BME280;63529;56.320;43.990;2023-05-07T03:38:50;100451.31;;;23.18;23.60
74973;BME280;63529;56.320;43.990;2023-05-07T03:41:19;100443.50;;;24.36;22.06
74973;BME280;63529;56.320;43.990;2023-05-07T03:43:46;100462.00;;;25.29;20.80
74973;BME280;63529;56.320;43.990;2023-05-07T03:46:12;100459.19;;;25.93;20.64
74973;BME280;63529;56.320;43.990;2023-05-07T03:48:38;100468.00;;;26.62;19.56
74973;BME280;63529;56.320;43.990;2023-05-07T03:51:05;100459.53;;;27.38;19.34
74973;BME280;63529;56.320;43.990;2023-05-07T03:53:32;100462.41;;;28.03;18.31
74973;BME280;63529;56.320;43.990;2023-05-07T03:55:59;100458.81;;;28.67;18.15
74973;BME280;63529;56.320;43.990;2023-05-07T03:58:25;100470.53;;;29.44;17.33
74973;BME280;63529;56.320;43.990;2023-05-07T04:00:52;100469.69;;;29.70;17.16
74973;BME280;63529;56.320;43.990;2023-05-07T04:03:26;100475.59;;;30.09;16.33
74973;BME280;63529;56.320;43.990;2023-05-07T04:05:52;100468.78;;;30.33;15.89
74973;BME280;63529;56.320;43.990;2023-05-07T04:08:18;100472.88;;;30.53;15.92
74973;BME280;63529;56.320;43.990;2023-05-07T04:10:47;100473.97;;;30.93;15.67
74973;BME280;63529;56.320;43.990;2023-05-07T04:13:13;100468.66;;;31.29;15.15
74973;BME280;63529;56.320;43.990;2023-05-07T04:15:39;100475.19;;;31.76;14.84
74973;BME280;63529;56.320;43.990;2023-05-07T04:18:09;100473.28;;;32.12;14.70
74973;BME280;63529;56.320;43.990;2023-05-07T04:20:36;100473.34;;;32.44;14.72
74973;BME280;63529;56.320;43.990;2023-05-07T04:23:08;100470.59;;;32.87;14.00
74973;BME280;63529;56.320;43.990;2023-05-07T04:25:35;100480.38;;;33.16;13.78
74973;BME280;63529;56.320;43.990;2023-05-07T04:28:08;100478.34;;;33.45;13.49
74973;BME280;63529;56.320;43.990;2023-05-07T04:30:34;100489.22;;;33.81;13.42
74973;BME280;63529;56.320;43.990;2023-05-07T04:33:02;100496.16;;;34.14;13.12
74973;BME280;63529;56.320;43.990;2023-05-07T04:35:29;100482.31;;;34.66;12.76
74973;BME280;63529;56.320;43.990;2023-05-07T04:37:56;100484.38;;;35.00;12.63
74973;BME280;63529;56.320;43.990;2023-05-07T04:40:21;100494.25;;;35.42;12.34
74973;BME280;63529;56.320;43.990;2023-05-07T04:42:48;100492.94;;;35.81;12.03
74973;BME280;63529;56.320;43.990;2023-05-07T04:45:14;100497.50;;;36.22;11.66
74973;BME280;63529;56.320;43.990;2023-05-07T04:47:43;100502.81;;;36.39;11.57
74973;BME280;63529;56.320;43.990;2023-05-07T04:50:09;100503.53;;;36.67;11.07
74973;BME280;63529;56.320;43.990;2023-05-07T04:52:37;100498.34;;;36.92;11.12
74973;BME280;63529;56.320;43.990;2023-05-07T04:55:03;100503.28;;;37.25;10.93
74973;BME280;63529;56.320;43.990;2023-05-07T04:57:34;100499.72;;;37.64;10.68
74973;BME280;63529;56.320;43.990;2023-05-07T05:00:00;100501.66;;;38.19;10.31
74973;BME280;63529;56.320;43.990;2023-05-07T05:02:30;100507.06;;;36.94;10.80
74973;BME280;63529;56.320;43.990;2023-05-07T05:04:56;100506.19;;;35.35;11.57
74973;BME280;63529;56.320;43.990;2023-05-07T05:07:22;100503.06;;;35.30;11.99
74973;BME280;63529;56.320;43.990;2023-05-07T05:09:48;100508.56;;;35.98;11.22
74973;BME280;63529;56.320;43.990;2023-05-07T05:12:14;100499.72;;;36.81;10.64
74973;BME280;63529;56.320;43.990;2023-05-07T05:14:41;100506.59;;;37.59;10.22
74973;BME280;63529;56.320;43.990;2023-05-07T05:17:07;100498.53;;;38.17;10.11
74973;BME280;63529;56.320;43.990;2023-05-07T05:19:35;100502.44;;;38.85;9.27
74973;BME280;63529;56.320;43.990;2023-05-07T05:22:01;100500.13;;;37.62;9.97
74973;BME280;63529;56.320;43.990;2023-05-07T05:24:30;100501.78;;;37.20;10.57
74973;BME280;63529;56.320;43.990;2023-05-07T05:26:57;100500.50;;;37.64;9.91
74973;BME280;63529;56.320;43.990;2023-05-07T05:29:24;100491.63;;;37.89;9.94
74973;BME280;63529;56.320;43.990;2023-05-07T05:31:50;100488.44;;;38.40;9.83
74973;BME280;63529;56.320;43.990;2023-05-07T05:34:17;100492.59;;;38.15;9.86
74973;BME280;63529;56.320;43.990;2023-05-07T05:36:45;100499.09;;;38.90;9.47
74973;BME280;63529;56.320;43.990;2023-05-07T05:39:13;100493.78;;;39.67;9.10
74973;BME280;63529;56.320;43.990;2023-05-07T05:41:39;100497.88;;;40.64;8.66
74973;BME280;63529;56.320;43.990;2023-05-07T05:44:06;100493.78;;;41.65;8.22
74973;BME280;63529;56.320;43.990;2023-05-07T05:46:32;100494.31;;;40.38;8.47
74973;BME280;63529;56.320;43.990;2023-05-07T05:48:58;100499.31;;;38.34;9.47
74973;BME280;63529;56.320;43.990;2023-05-07T05:51:25;100505.25;;;34.18;10.72
74973;BME280;63529;56.320;43.990;2023-05-07T05:53:52;100503.59;;;31.80;12.32
74973;BME280;63529;56.320;43.990;2023-05-07T05:56:19;100498.06;;;31.80;12.20
74973;BME280;63529;56.320;43.990;2023-05-07T05:58:46;100501.22;;;33.53;11.57
74973;BME280;63529;56.320;43.990;2023-05-07T06:01:12;100502.47;;;33.31;11.47
74973;BME280;63529;56.320;43.990;2023-05-07T06:03:38;100509.34;;;30.84;12.56
74973;BME280;63529;56.320;43.990;2023-05-07T06:06:10;100507.66;;;33.11;11.83
74973;BME280;63529;56.320;43.990;2023-05-07T06:08:36;100509.19;;;34.21;11.19
74973;BME280;63529;56.320;43.990;2023-05-07T06:11:03;100509.63;;;32.32;11.57
74973;BME280;63529;56.320;43.990;2023-05-07T06:13:31;100510.34;;;29.54;13.27
74973;BME280;63529;56.320;43.990;2023-05-07T06:15:58;100520.59;;;27.35;14.74
74973;BME280;63529;56.320;43.990;2023-05-07T06:18:24;100516.09;;;25.35;15.74
74973;BME280;63529;56.320;43.990;2023-05-07T06:20:51;100513.72;;;26.30;15.42
74973;BME280;63529;56.320;43.990;2023-05-07T06:23:23;100515.41;;;28.49;14.23
74973;BME280;63529;56.320;43.990;2023-05-07T06:25:50;100513.97;;;32.15;11.78
74973;BME280;63529;56.320;43.990;2023-05-07T06:28:17;100522.88;;;35.32;10.16
74973;BME280;63529;56.320;43.990;2023-05-07T06:30:43;100510.59;;;37.94;8.98
74973;BME280;63529;56.320;43.990;2023-05-07T06:33:09;100511.44;;;39.05;8.51
74973;BME280;63529;56.320;43.990;2023-05-07T06:35:36;100516.47;;;36.77;9.30
74973;BME280;63529;56.320;43.990;2023-05-07T06:38:02;100515.16;;;33.21;10.65
74973;BME280;63529;56.320;43.990;2023-05-07T06:40:29;100519.53;;;29.98;12.52
74973;BME280;63529;56.320;43.990;2023-05-07T06:42:58;100522.72;;;29.40;12.96
74973;BME280;63529;56.320;43.990;2023-05-07T06:45:47;100524.09;;;27.70;13.78
74973;BME280;63529;56.320;43.990;2023-05-07T06:48:13;100520.00;;;25.75;14.70
74973;BME280;63529;56.320;43.990;2023-05-07T06:50:52;100521.97;;;26.46;14.66
74973;BME280;63529;56.320;43.990;2023-05-07T06:53:21;100522.00;;;30.89;12.15
74973;BME280;63529;56.320;43.990;2023-05-07T06:55:47;100518.84;;;35.02;10.37
74973;BME280;63529;56.320;43.990;2023-05-07T06:58:14;100519.41;;;38.29;8.66
74973;BME280;63529;56.320;43.990;2023-05-07T07:00:40;100527.59;;;36.77;8.72
74973;BME280;63529;56.320;43.990;2023-05-07T07:03:06;100520.69;;;33.17;10.06
74973;BME280;63529;56.320;43.990;2023-05-07T07:05:32;100523.09;;;30.33;11.93
74973;BME280;63529;56.320;43.990;2023-05-07T07:08:00;100529.19;;;27.52;13.18
74973;BME280;63529;56.320;43.990;2023-05-07T07:10:26;100536.28;;;25.06;14.72
74973;BME280;63529;56.320;43.990;2023-05-07T07:12:54;100540.97;;;23.02;16.11
74973;BME280;63529;56.320;43.990;2023-05-07T07:15:21;100535.00;;;24.01;16.07
74973;BME280;63529;56.320;43.990;2023-05-07T07:17:48;100530.00;;;28.99;13.52
74973;BME280;63529;56.320;43.990;2023-05-07T07:20:14;100533.38;;;30.39;12.00
74973;BME280;63529;56.320;43.990;2023-05-07T07:22:43;100530.41;;;34.45;10.32
74973;BME280;63529;56.320;43.990;2023-05-07T07:25:09;100527.38;;;38.27;8.48
74973;BME280;63529;56.320;43.990;2023-05-07T07:27:37;100521.06;;;37.11;8.71
74973;BME280;63529;56.320;43.990;2023-05-07T07:30:04;100531.19;;;33.76;10.20
74973;BME280;63529;56.320;43.990;2023-05-07T07:32:32;100522.63;;;30.27;11.49
74973;BME280;63529;56.320;43.990;2023-05-07T07:34:59;100529.88;;;27.30;13.08
74973;BME280;63529;56.320;43.990;2023-05-07T07:37:26;100529.09;;;27.29;13.32
74973;BME280;63529;56.320;43.990;2023-05-07T07:39:52;100532.19;;;30.03;12.16
74973;BME280;63529;56.320;43.990;2023-05-07T07:42:19;100539.13;;;31.88;11.20
74973;BME280;63529;56.320;43.990;2023-05-07T07:44:45;100537.56;;;33.62;9.95
74973;BME280;63529;56.320;43.990;2023-05-07T07:47:13;100533.88;;;31.58;10.52
74973;BME280;63529;56.320;43.990;2023-05-07T07:49:41;100535.97;;;29.05;11.50
74973;BME280;63529;56.320;43.990;2023-05-07T07:52:09;100535.75;;;26.81;12.72
74973;BME280;63529;56.320;43.990;2023-05-07T07:54:36;100537.25;;;25.51;13.69
74973;BME280;63529;56.320;43.990;2023-05-07T07:57:04;100535.47;;;25.30;14.02
74973;BME280;63529;56.320;43.990;2023-05-07T07:59:32;100541.66;;;24.24;14.82
74973;BME280;63529;56.320;43.990;2023-05-07T08:01:58;100532.13;;;23.05;15.49
74973;BME280;63529;56.320;43.990;2023-05-07T08:04:26;100528.25;;;21.86;16.27
74973;BME280;63529;56.320;43.990;2023-05-07T08:06:54;100532.09;;;20.71;16.81
74973;BME280;63529;56.320;43.990;2023-05-07T08:09:22;100527.94;;;19.75;17.83
74973;BME280;63529;56.320;43.990;2023-05-07T08:11:49;100528.75;;;18.98;18.40
74973;BME280;63529;56.320;43.990;2023-05-07T08:14:15;100541.84;;;18.45;19.12
74973;BME280;63529;56.320;43.990;2023-05-07T08:16:44;100537.09;;;18.56;19.01
74973;BME280;63529;56.320;43.990;2023-05-07T08:19:10;100536.25;;;20.69;17.75
74973;BME280;63529;56.320;43.990;2023-05-07T08:21:39;100543.25;;;21.92;16.72
74973;BME280;63529;56.320;43.990;2023-05-07T08:24:05;100537.84;;;23.12;15.73
74973;BME280;63529;56.320;43.990;2023-05-07T08:26:31;100530.25;;;25.78;14.38
74973;BME280;63529;56.320;43.990;2023-05-07T08:28:57;100535.94;;;26.88;13.44
74973;BME280;63529;56.320;43.990;2023-05-07T08:31:24;100536.91;;;26.64;13.28
74973;BME280;63529;56.320;43.990;2023-05-07T08:33:50;100534.63;;;25.42;13.63
74973;BME280;63529;56.320;43.990;2023-05-07T08:36:16;100543.47;;;23.87;14.66
74973;BME280;63529;56.320;43.990;2023-05-07T08:38:42;100546.38;;;22.55;15.72
74973;BME280;63529;56.320;43.990;2023-05-07T08:41:11;100544.88;;;22.75;15.95
74973;BME280;63529;56.320;43.990;2023-05-07T08:43:41;100549.22;;;22.76;15.62
74973;BME280;63529;56.320;43.990;2023-05-07T08:46:09;100546.91;;;21.97;16.41
74973;BME280;63529;56.320;43.990;2023-05-07T08:48:40;100541.16;;;20.98;16.99
74973;BME280;63529;56.320;43.990;2023-05-07T08:51:16;100541.09;;;20.04;17.62
74973;BME280;63529;56.320;43.990;2023-05-07T08:53:43;100543.28;;;19.30;18.14
74973;BME280;63529;56.320;43.990;2023-05-07T08:56:14;100556.69;;;18.66;18.73
74973;BME280;63529;56.320;43.990;2023-05-07T08:58:42;100557.44;;;18.21;19.05
74973;BME280;63529;56.320;43.990;2023-05-07T09:01:10;100561.50;;;18.18;19.05
74973;BME280;63529;56.320;43.990;2023-05-07T09:03:41;100556.00;;;18.88;18.60
74973;BME280;63529;56.320;43.990;2023-05-07T09:06:07;100560.47;;;19.62;17.90
74973;BME280;63529;56.320;43.990;2023-05-07T09:08:34;100539.28;;;19.77;17.65
74973;BME280;63529;56.320;43.990;2023-05-07T09:11:02;100551.38;;;19.44;17.70
74973;BME280;63529;56.320;43.990;2023-05-07T09:13:29;100552.00;;;18.86;18.10
74973;BME280;63529;56.320;43.990;2023-05-07T09:15:56;100551.25;;;18.34;18.51
74973;BME280;63529;56.320;43.990;2023-05-07T09:18:26;100546.78;;;17.92;18.99
74973;BME280;63529;56.320;43.990;2023-05-07T09:20:53;100558.63;;;17.77;19.06
74973;BME280;63529;56.320;43.990;2023-05-07T09:23:20;100548.75;;;18.05;18.80
74973;BME280;63529;56.320;43.990;2023-05-07T09:25:47;100546.84;;;18.38;18.58
74973;BME280;63529;56.320;43.990;2023-05-07T09:28:19;100562.78;;;18.39;18.42
74973;BME280;63529;56.320;43.990;2023-05-07T09:30:46;100568.88;;;18.12;18.70
74973;BME280;63529;56.320;43.990;2023-05-07T09:33:13;100571.03;;;17.78;19.25
74973;BME280;63529;56.320;43.990;2023-05-07T09:35:44;100568.94;;;17.51;19.70
74973;BME280;63529;56.320;43.990;2023-05-07T09:38:18;100563.47;;;17.56;19.79
74973;BME280;63529;56.320;43.990;2023-05-07T09:40:47;100556.47;;;17.93;19.64
74973;BME280;63529;56.320;43.990;2023-05-07T09:43:20;100568.88;;;18.45;19.23
74973;BME280;63529;56.320;43.990;2023-05-07T09:45:53;100561.53;;;18.64;18.88
74973;BME280;63529;56.320;43.990;2023-05-07T09:48:23;100564.81;;;18.48;19.05
74973;BME280;63529;56.320;43.990;2023-05-07T09:50:55;100572.66;;;18.30;19.21
74973;BME280;63529;56.320;43.990;2023-05-07T09:53:29;100564.06;;;18.09;19.24
74973;BME280;63529;56.320;43.990;2023-05-07T09:55:58;100564.53;;;17.98;19.06
74973;BME280;63529;56.320;43.990;2023-05-07T09:58:26;100568.03;;;17.98;18.89
74973;BME280;63529;56.320;43.990;2023-05-07T10:00:52;100571.81;;;18.16;18.99
74973;BME280;63529;56.320;43.990;2023-05-07T10:03:19;100576.84;;;18.23;18.86
74973;BME280;63529;56.320;43.990;2023-05-07T10:05:58;100580.28;;;17.90;19.25
74973;BME280;63529;56.320;43.990;2023-05-07T10:08:25;100579.28;;;17.44;19.71
74973;BME280;63529;56.320;43.990;2023-05-07T10:10:54;100574.16;;;16.94;20.21
74973;BME280;63529;56.320;43.990;2023-05-07T10:13:24;100585.75;;;16.71;20.73
74973;BME280;63529;56.320;43.990;2023-05-07T10:15:55;100590.50;;;16.79;20.75
74973;BME280;63529;56.320;43.990;2023-05-07T10:18:23;100590.22;;;17.09;20.32
74973;BME280;63529;56.320;43.990;2023-05-07T10:21:10;100586.63;;;17.38;20.05
74973;BME280;63529;56.320;43.990;2023-05-07T10:23:37;100589.38;;;17.33;20.20
74973;BME280;63529;56.320;43.990;2023-05-07T10:26:06;100586.50;;;17.00;20.36
74973;BME280;63529;56.320;43.990;2023-05-07T10:28:41;100587.28;;;16.43;20.95
74973;BME280;63529;56.320;43.990;2023-05-07T10:33:47;100593.13;;;15.77;21.59
74973;BME280;63529;56.320;43.990;2023-05-07T10:36:16;100590.22;;;15.68;21.71
74973;BME280;63529;56.320;43.990;2023-05-07T10:38:43;100598.28;;;15.68;21.62
74973;BME280;63529;56.320;43.990;2023-05-07T10:41:10;100590.69;;;15.80;21.42
74973;BME280;63529;56.320;43.990;2023-05-07T10:43:45;100594.41;;;15.84;21.36
74973;BME280;63529;56.320;43.990;2023-05-07T10:46:19;100589.31;;;15.83;21.26
74973;BME280;63529;56.320;43.990;2023-05-07T10:49:09;100589.38;;;15.72;21.34
74973;BME280;63529;56.320;43.990;2023-05-07T10:52:25;100591.31;;;15.57;21.46
74973;BME280;63529;56.320;43.990;2023-05-07T11:00:58;100595.22;;;13.88;23.13
74973;BME280;63529;56.320;43.990;2023-05-07T11:03:31;100600.59;;;13.82;23.16
74973;BME280;63529;56.320;43.990;2023-05-07T11:06:11;100604.13;;;14.03;23.01
74973;BME280;63529;56.320;43.990;2023-05-07T11:08:55;100602.00;;;14.31;22.60
74973;BME280;63529;56.320;43.990;2023-05-07T11:11:44;100600.69;;;14.59;22.29
74973;BME280;63529;56.320;43.990;2023-05-07T11:14:40;100594.72;;;14.92;21.96
74973;BME280;63529;56.320;43.990;2023-05-07T11:17:08;100598.50;;;15.02;21.76
74973;BME280;63529;56.320;43.990;2023-05-07T11:19:55;100604.44;;;14.88;21.94
74973;BME280;63529;56.320;43.990;2023-05-07T11:22:39;100604.16;;;14.85;22.29
74973;BME280;63529;56.320;43.990;2023-05-07T11:25:23;100597.41;;;14.92;22.31
74973;BME280;63529;56.320;43.990;2023-05-07T11:28:05;100596.59;;;15.07;21.74
74973;BME280;63529;56.320;43.990;2023-05-07T11:30:31;100607.31;;;15.23;21.31
74973;BME280;63529;56.320;43.990;2023-05-07T11:32:58;100610.78;;;15.28;21.21
74973;BME280;63529;56.320;43.990;2023-05-07T11:35:25;100613.78;;;15.22;21.42
74973;BME280;63529;56.320;43.990;2023-05-07T11:37:59;100620.78;;;15.12;21.66
74973;BME280;63529;56.320;43.990;2023-05-07T11:40:26;100618.91;;;15.13;21.90
74973;BME280;63529;56.320;43.990;2023-05-07T11:42:54;100619.94;;;15.27;22.00
74973;BME280;63529;56.320;43.990;2023-05-07T11:45:23;100604.00;;;15.46;21.62
74973;BME280;63529;56.320;43.990;2023-05-07T11:47:51;100623.31;;;15.68;21.43
74973;BME280;63529;56.320;43.990;2023-05-07T11:50:17;100603.44;;;15.49;21.31
74973;BME280;63529;56.320;43.990;2023-05-07T11:52:51;100617.31;;;15.07;21.82
74973;BME280;63529;56.320;43.990;2023-05-07T11:55:18;100614.94;;;14.75;22.13
74973;BME280;63529;56.320;43.990;2023-05-07T11:57:44;100615.22;;;14.48;22.45
74973;BME280;63529;56.320;43.990;2023-05-07T12:00:11;100620.00;;;14.25;22.31
74973;BME280;63529;56.320;43.990;2023-05-07T12:02:39;100625.84;;;14.07;22.54
74973;BME280;63529;56.320;43.990;2023-05-07T12:05:06;100622.88;;;13.93;22.59
74973;BME280;63529;56.320;43.990;2023-05-07T12:07:33;100629.31;;;13.92;22.98
74973;BME280;63529;56.320;43.990;2023-05-07T12:10:04;100626.38;;;13.94;23.05
74973;BME280;63529;56.320;43.990;2023-05-07T12:12:31;100624.72;;;13.88;23.19
74973;BME280;63529;56.320;43.990;2023-05-07T12:14:57;100631.97;;;13.87;23.39
74973;BME280;63529;56.320;43.990;2023-05-07T12:17:22;100633.34;;;13.90;23.37
74973;BME280;63529;56.320;43.990;2023-05-07T12:19:48;100640.84;;;13.88;23.23
74973;BME280;63529;56.320;43.990;2023-05-07T12:22:15;100640.84;;;13.82;23.11
74973;BME280;63529;56.320;43.990;2023-05-07T12:24:45;100637.84;;;13.74;23.20
74973;BME280;63529;56.320;43.990;2023-05-07T12:27:11;100640.50;;;13.64;23.16
74973;BME280;63529;56.320;43.990;2023-05-07T12:29:38;100637.78;;;13.58;23.52
74973;BME280;63529;56.320;43.990;2023-05-07T12:32:06;100652.53;;;13.61;23.54
74973;BME280;63529;56.320;43.990;2023-05-07T12:34:32;100648.88;;;13.77;23.56
74973;BME280;63529;56.320;43.990;2023-05-07T12:37:01;100646.22;;;13.93;23.51
74973;BME280;63529;56.320;43.990;2023-05-07T12:39:29;100645.22;;;14.09;23.46
74973;BME280;63529;56.320;43.990;2023-05-07T12:41:56;100643.63;;;14.38;23.30
74973;BME280;63529;56.320;43.990;2023-05-07T12:44:25;100647.97;;;14.60;23.10
74973;BME280;63529;56.320;43.990;2023-05-07T12:46:54;100651.75;;;14.49;22.89
74973;BME280;63529;56.320;43.990;2023-05-07T12:49:20;100655.69;;;14.21;22.97
74973;BME280;63529;56.320;43.990;2023-05-07T12:51:49;100659.66;;;13.98;22.93
74973;BME280;63529;56.320;43.990;2023-05-07T12:54:37;100656.66;;;13.79;23.07
74973;BME280;63529;56.320;43.990;2023-05-07T12:57:05;100660.38;;;13.73;23.31